sensor_id;sensor_type;location;lat;lon;timestamp;temperature;humidity
26081;DHT22;13991;51.174;4.438;2024-02-16T00:01:24;14.00;99.90
26081;DHT22;13991;51.174;4.438;2024-02-16T00:03:49;13.90;99.90
26081;DHT22;13991;51.174;4.438;2024-02-16T00:06:15;14.00;99.90
26081;DHT22;13991;51.174;4.438;2024-02-16T00:08:41;14.00;99.90
26081;DHT22;13991;51.174;4.438;2024-02-16T00:11:06;14.00;99.90
26081;DHT22;13991;51.174;4.438;2024-02-16T00:13:32;14.00;99.90
26081;DHT22;13991;51.174;4.438;2024-02-16T00:15:58;14.00;99.90
26081;DHT22;13991;51.174;4.438;2024-02-16T00:18:23;14.10;99.90
26081;DHT22;13991;51.174;4.438;2024-02-16T00:20:49;14.10;99.90
26081;DHT22;13991;51.174;4.438;2024-02-16T00:23:15;14.10;99.90
26081;DHT22;13991;51.174;4.438;2024-02-16T00:25:40;14.10;99.90
26081;DHT22;13991;51.174;4.438;2024-02-16T00:28:07;14.30;99.90
26081;DHT22;13991;51.174;4.438;2024-02-16T00:30:33;14.20;99.90
26081;DHT22;13991;51.174;4.438;2024-02-16T00:32:58;14.10;99.90
26081;DHT22;13991;51.174;4.438;2024-02-16T00:35:24;14.10;99.90
26081;DHT22;13991;51.174;4.438;2024-02-16T00:37:49;14.00;99.90
26081;DHT22;13991;51.174;4.438;2024-02-16T00:40:15;14.10;99.90
26081;DHT22;13991;51.174;4.438;2024-02-16T00:42:41;14.00;99.90
26081;DHT22;13991;51.174;4.438;2024-02-16T00:45:07;14.00;99.90
26081;DHT22;13991;51.174;4.438;2024-02-16T00:47:33;14.00;99.90
26081;DHT22;13991;51.174;4.438;2024-02-16T00:49:59;13.90;99.90
26081;DHT22;13991;51.174;4.438;2024-02-16T00:52:24;13.90;99.90
26081;DHT22;13991;51.174;4.438;2024-02-16T00:54:50;13.90;99.90
26081;DHT22;13991;51.174;4.438;2024-02-16T00:57:16;13.90;99.90
26081;DHT22;13991;51.174;4.438;2024-02-16T00:59:42;13.90;99.90
26081;DHT22;13991;51.174;4.438;2024-02-16T01:02:07;14.00;99.90
26081;DHT22;13991;51.174;4.438;2024-02-16T01:04:35;13.90;99.90
26081;DHT22;13991;51.174;4.438;2024-02-16T01:07:00;14.00;99.90
26081;DHT22;13991;51.174;4.438;2024-02-16T01:09:26;14.00;99.90
26081;DHT22;13991;51.174;4.438;2024-02-16T01:11:52;14.00;99.90
26081;DHT22;13991;51.174;4.438;2024-02-16T01:14:18;13.90;99.90
26081;DHT22;13991;51.174;4.438;2024-02-16T01:16:44;13.90;99.90
26081;DHT22;13991;51.174;4.438;2024-02-16T01:19:09;13.90;99.90
26081;DHT22;13991;51.174;4.438;2024-02-16T01:21:35;13.90;99.90
26081;DHT22;13991;51.174;4.438;2024-02-16T01:24:01;13.90;99.90
26081;DHT22;13991;51.174;4.438;2024-02-16T01:26:30;13.80;99.90
26081;DHT22;13991;51.174;4.438;2024-02-16T01:28:56;13.80;99.90
26081;DHT22;13991;51.174;4.438;2024-02-16T01:31:23;13.70;99.90
26081;DHT22;13991;51.174;4.438;2024-02-16T01:33:49;13.70;99.90
26081;DHT22;13991;51.174;4.438;2024-02-16T01:36:14;13.70;99.90
26081;DHT22;13991;51.174;4.438;2024-02-16T01:38:40;13.70;99.90
26081;DHT22;13991;51.174;4.438;2024-02-16T01:41:06;13.80;99.90
26081;DHT22;13991;51.174;4.438;2024-02-16T01:43:33;13.80;99.90
26081;DHT22;13991;51.174;4.438;2024-02-16T01:45:58;13.90;99.90
26081;DHT22;13991;51.174;4.438;2024-02-16T01:48:25;13.80;99.90
26081;DHT22;13991;51.174;4.438;2024-02-16T01:50:52;13.80;99.90
26081;DHT22;13991;51.174;4.438;2024-02-16T01:53:18;13.80;99.90
26081;DHT22;13991;51.174;4.438;2024-02-16T01:55:47;13.80;99.90
26081;DHT22;13991;51.174;4.438;2024-02-16T01:58:13;13.80;99.90
26081;DHT22;13991;51.174;4.438;2024-02-16T02:00:40;13.70;99.90
26081;DHT22;13991;51.174;4.438;2024-02-16T02:03:06;13.80;99.90
26081;DHT22;13991;51.174;4.438;2024-02-16T02:05:32;13.80;99.90
26081;DHT22;13991;51.174;4.438;2024-02-16T02:07:58;13.80;99.90
26081;DHT22;13991;51.174;4.438;2024-02-16T02:10:24;13.80;99.90
26081;DHT22;13991;51.174;4.438;2024-02-16T02:12:50;13.70;99.90
26081;DHT22;13991;51.174;4.438;2024-02-16T02:15:16;13.70;99.90
26081;DHT22;13991;51.174;4.438;2024-02-16T02:17:41;13.70;99.90
26081;DHT22;13991;51.174;4.438;2024-02-16T02:20:07;13.70;99.90
26081;DHT22;13991;51.174;4.438;2024-02-16T02:22:39;13.80;99.90
26081;DHT22;13991;51.174;4.438;2024-02-16T02:25:05;13.80;99.90
26081;DHT22;13991;51.174;4.438;2024-02-16T02:27:30;13.80;99.90
26081;DHT22;13991;51.174;4.438;2024-02-16T02:29:56;13.70;99.90
26081;DHT22;13991;51.174;4.438;2024-02-16T02:32:22;13.70;99.90
26081;DHT22;13991;51.174;4.438;2024-02-16T02:34:47;13.60;99.90
26081;DHT22;13991;51.174;4.438;2024-02-16T02:37:13;13.60;99.90
26081;DHT22;13991;51.174;4.438;2024-02-16T02:39:39;13.60;99.90
26081;DHT22;13991;51.174;4.438;2024-02-16T02:42:05;13.60;99.90
26081;DHT22;13991;51.174;4.438;2024-02-16T02:44:32;13.60;99.90
26081;DHT22;13991;51.174;4.438;2024-02-16T02:46:58;13.60;99.90
26081;DHT22;13991;51.174;4.438;2024-02-16T02:49:24;13.60;99.90
26081;DHT22;13991;51.174;4.438;2024-02-16T02:51:49;13.50;99.90
26081;DHT22;13991;51.174;4.438;2024-02-16T02:54:15;13.50;99.90
26081;DHT22;13991;51.174;4.438;2024-02-16T02:56:41;13.50;99.90
26081;DHT22;13991;51.174;4.438;2024-02-16T02:59:06;13.60;99.90
26081;DHT22;13991;51.174;4.438;2024-02-16T03:01:34;13.50;99.90
26081;DHT22;13991;51.174;4.438;2024-02-16T03:04:01;13.50;99.90
26081;DHT22;13991;51.174;4.438;2024-02-16T03:06:26;13.50;99.90
26081;DHT22;13991;51.174;4.438;2024-02-16T03:08:52;13.50;99.90
26081;DHT22;13991;51.174;4.438;2024-02-16T03:11:18;13.50;99.90
26081;DHT22;13991;51.174;4.438;2024-02-16T03:13:44;13.50;99.90
26081;DHT22;13991;51.174;4.438;2024-02-16T03:16:09;13.60;99.90
26081;DHT22;13991;51.174;4.438;2024-02-16T03:18:36;13.60;99.90
26081;DHT22;13991;51.174;4.438;2024-02-16T03:21:01;13.70;99.90
26081;DHT22;13991;51.174;4.438;2024-02-16T03:23:27;13.80;99.90
26081;DHT22;13991;51.174;4.438;2024-02-16T03:25:53;13.80;99.90
26081;DHT22;13991;51.174;4.438;2024-02-16T03:28:19;13.70;99.90
26081;DHT22;13991;51.174;4.438;2024-02-16T03:30:46;13.60;99.90
26081;DHT22;13991;51.174;4.438;2024-02-16T03:33:12;13.60;99.90
26081;DHT22;13991;51.174;4.438;2024-02-16T03:35:39;13.60;99.90
26081;DHT22;13991;51.174;4.438;2024-02-16T03:38:06;13.60;99.90
26081;DHT22;13991;51.174;4.438;2024-02-16T03:40:31;13.50;99.90
26081;DHT22;13991;51.174;4.438;2024-02-16T03:42:58;13.60;99.90
26081;DHT22;13991;51.174;4.438;2024-02-16T03:45:24;13.60;99.90
26081;DHT22;13991;51.174;4.438;2024-02-16T03:47:49;13.60;99.90
26081;DHT22;13991;51.174;4.438;2024-02-16T03:50:18;13.70;99.90
26081;DHT22;13991;51.174;4.438;2024-02-16T03:52:44;13.70;99.90
26081;DHT22;13991;51.174;4.438;2024-02-16T03:55:09;13.70;99.90
26081;DHT22;13991;51.174;4.438;2024-02-16T03:57:35;13.50;99.90
26081;DHT22;13991;51.174;4.438;2024-02-16T04:00:01;13.50;99.90
26081;DHT22;13991;51.174;4.438;2024-02-16T04:02:28;13.50;99.90
26081;DHT22;13991;51.174;4.438;2024-02-16T04:04:53;13.50;99.90
26081;DHT22;13991;51.174;4.438;2024-02-16T04:07:19;13.50;99.90
26081;DHT22;13991;51.174;4.438;2024-02-16T04:09:45;13.50;99.90
26081;DHT22;13991;51.174;4.438;2024-02-16T04:12:10;13.60;99.90
26081;DHT22;13991;51.174;4.438;2024-02-16T04:14:36;13.60;99.90
26081;DHT22;13991;51.174;4.438;2024-02-16T04:17:02;13.60;99.90
26081;DHT22;13991;51.174;4.438;2024-02-16T04:19:28;13.70;99.90
26081;DHT22;13991;51.174;4.438;2024-02-16T04:21:54;13.70;99.90
26081;DHT22;13991;51.174;4.438;2024-02-16T04:24:20;13.70;99.90
26081;DHT22;13991;51.174;4.438;2024-02-16T04:26:45;13.70;99.90
26081;DHT22;13991;51.174;4.438;2024-02-16T04:29:11;13.70;99.90
26081;DHT22;13991;51.174;4.438;2024-02-16T04:31:40;13.80;99.90
26081;DHT22;13991;51.174;4.438;2024-02-16T04:34:08;13.80;99.90
26081;DHT22;13991;51.174;4.438;2024-02-16T04:36:34;13.80;99.90
26081;DHT22;13991;51.174;4.438;2024-02-16T04:39:00;13.80;99.90
26081;DHT22;13991;51.174;4.438;2024-02-16T04:41:25;13.80;99.90
26081;DHT22;13991;51.174;4.438;2024-02-16T04:43:51;13.90;99.90
26081;DHT22;13991;51.174;4.438;2024-02-16T04:46:18;13.90;99.90
26081;DHT22;13991;51.174;4.438;2024-02-16T04:48:44;13.90;99.90
26081;DHT22;13991;51.174;4.438;2024-02-16T04:51:11;14.00;99.90
26081;DHT22;13991;51.174;4.438;2024-02-16T04:53:37;14.00;99.90
26081;DHT22;13991;51.174;4.438;2024-02-16T04:56:02;14.00;99.90
26081;DHT22;13991;51.174;4.438;2024-02-16T04:58:28;14.10;99.90
26081;DHT22;13991;51.174;4.438;2024-02-16T05:00:54;14.00;99.90
26081;DHT22;13991;51.174;4.438;2024-02-16T05:03:19;13.90;99.90
26081;DHT22;13991;51.174;4.438;2024-02-16T05:05:45;14.00;99.90
26081;DHT22;13991;51.174;4.438;2024-02-16T05:08:11;14.00;99.90
26081;DHT22;13991;51.174;4.438;2024-02-16T05:10:37;14.10;99.90
26081;DHT22;13991;51.174;4.438;2024-02-16T05:13:03;14.00;99.90
26081;DHT22;13991;51.174;4.438;2024-02-16T05:15:30;14.00;99.90
26081;DHT22;13991;51.174;4.438;2024-02-16T05:17:55;14.10;99.90
26081;DHT22;13991;51.174;4.438;2024-02-16T05:20:21;14.10;99.90
26081;DHT22;13991;51.174;4.438;2024-02-16T05:22:47;14.00;99.90
26081;DHT22;13991;51.174;4.438;2024-02-16T05:25:18;14.10;99.90
26081;DHT22;13991;51.174;4.438;2024-02-16T05:27:44;14.10;99.90
26081;DHT22;13991;51.174;4.438;2024-02-16T05:30:11;14.10;99.90
26081;DHT22;13991;51.174;4.438;2024-02-16T05:32:38;14.20;99.90
26081;DHT22;13991;51.174;4.438;2024-02-16T05:35:05;14.20;99.90
26081;DHT22;13991;51.174;4.438;2024-02-16T05:37:47;14.30;99.90
26081;DHT22;13991;51.174;4.438;2024-02-16T05:40:15;14.20;99.90
26081;DHT22;13991;51.174;4.438;2024-02-16T05:42:53;14.40;99.90
26081;DHT22;13991;51.174;4.438;2024-02-16T05:45:19;14.30;99.90
26081;DHT22;13991;51.174;4.438;2024-02-16T05:47:46;14.40;99.90
26081;DHT22;13991;51.174;4.438;2024-02-16T05:50:13;14.30;99.90
26081;DHT22;13991;51.174;4.438;2024-02-16T05:52:39;14.40;99.90
26081;DHT22;13991;51.174;4.438;2024-02-16T05:55:09;14.40;99.90
26081;DHT22;13991;51.174;4.438;2024-02-16T05:57:35;14.30;99.90
26081;DHT22;13991;51.174;4.438;2024-02-16T06:00:02;14.40;99.90
26081;DHT22;13991;51.174;4.438;2024-02-16T06:02:32;14.30;99.90
26081;DHT22;13991;51.174;4.438;2024-02-16T06:04:58;14.30;99.90
26081;DHT22;13991;51.174;4.438;2024-02-16T06:07:24;14.30;99.90
26081;DHT22;13991;51.174;4.438;2024-02-16T06:09:50;14.30;99.90
26081;DHT22;13991;51.174;4.438;2024-02-16T06:12:16;14.30;99.90
26081;DHT22;13991;51.174;4.438;2024-02-16T06:14:42;14.30;99.90
26081;DHT22;13991;51.174;4.438;2024-02-16T06:17:08;14.40;99.90
26081;DHT22;13991;51.174;4.438;2024-02-16T06:19:35;14.40;99.90
26081;DHT22;13991;51.174;4.438;2024-02-16T06:22:01;14.40;99.90
26081;DHT22;13991;51.174;4.438;2024-02-16T06:24:26;14.50;99.90
26081;DHT22;13991;51.174;4.438;2024-02-16T06:26:53;14.60;99.90
26081;DHT22;13991;51.174;4.438;2024-02-16T06:29:20;14.60;99.90
26081;DHT22;13991;51.174;4.438;2024-02-16T06:31:48;14.60;99.90
26081;DHT22;13991;51.174;4.438;2024-02-16T06:34:15;14.50;99.90
26081;DHT22;13991;51.174;4.438;2024-02-16T06:36:43;14.60;99.90
26081;DHT22;13991;51.174;4.438;2024-02-16T06:39:10;14.70;99.90
26081;DHT22;13991;51.174;4.438;2024-02-16T06:41:36;14.70;99.90
26081;DHT22;13991;51.174;4.438;2024-02-16T06:44:04;14.60;99.90
26081;DHT22;13991;51.174;4.438;2024-02-16T06:46:30;14.60;99.90
26081;DHT22;13991;51.174;4.438;2024-02-16T06:48:56;14.60;99.90
26081;DHT22;13991;51.174;4.438;2024-02-16T06:51:25;14.40;99.90
26081;DHT22;13991;51.174;4.438;2024-02-16T06:53:59;14.60;99.90
26081;DHT22;13991;51.174;4.438;2024-02-16T06:56:25;14.60;99.90
26081;DHT22;13991;51.174;4.438;2024-02-16T06:58:50;14.60;99.90
26081;DHT22;13991;51.174;4.438;2024-02-16T07:01:17;14.60;99.90
26081;DHT22;13991;51.174;4.438;2024-02-16T07:03:45;14.60;99.90
26081;DHT22;13991;51.174;4.438;2024-02-16T07:06:11;14.70;99.90
26081;DHT22;13991;51.174;4.438;2024-02-16T07:08:43;14.70;99.90
26081;DHT22;13991;51.174;4.438;2024-02-16T07:11:10;14.60;99.90
26081;DHT22;13991;51.174;4.438;2024-02-16T07:13:39;14.70;99.90
26081;DHT22;13991;51.174;4.438;2024-02-16T07:16:06;14.80;99.90
26081;DHT22;13991;51.174;4.438;2024-02-16T07:18:34;14.70;99.90
26081;DHT22;13991;51.174;4.438;2024-02-16T07:21:00;14.80;99.90
26081;DHT22;13991;51.174;4.438;2024-02-16T07:23:27;14.80;99.90
26081;DHT22;13991;51.174;4.438;2024-02-16T07:25:53;14.90;99.90
26081;DHT22;13991;51.174;4.438;2024-02-16T07:28:22;15.00;99.90
26081;DHT22;13991;51.174;4.438;2024-02-16T07:30:48;14.90;99.90
26081;DHT22;13991;51.174;4.438;2024-02-16T07:33:14;14.90;99.90
26081;DHT22;13991;51.174;4.438;2024-02-16T07:35:40;14.80;99.90
26081;DHT22;13991;51.174;4.438;2024-02-16T07:38:06;14.80;99.90
26081;DHT22;13991;51.174;4.438;2024-02-16T07:40:32;14.90;99.90
26081;DHT22;13991;51.174;4.438;2024-02-16T07:42:58;15.00;99.90
26081;DHT22;13991;51.174;4.438;2024-02-16T07:45:24;15.00;99.90
26081;DHT22;13991;51.174;4.438;2024-02-16T07:47:50;15.10;99.90
26081;DHT22;13991;51.174;4.438;2024-02-16T07:50:20;15.00;99.90
26081;DHT22;13991;51.174;4.438;2024-02-16T07:52:48;15.10;99.90
26081;DHT22;13991;51.174;4.438;2024-02-16T07:55:14;15.10;99.90
26081;DHT22;13991;51.174;4.438;2024-02-16T07:57:40;15.00;99.90
26081;DHT22;13991;51.174;4.438;2024-02-16T08:00:06;15.10;99.90
26081;DHT22;13991;51.174;4.438;2024-02-16T08:02:32;15.00;99.90
26081;DHT22;13991;51.174;4.438;2024-02-16T08:04:59;15.00;99.90
26081;DHT22;13991;51.174;4.438;2024-02-16T08:07:24;15.00;99.90
26081;DHT22;13991;51.174;4.438;2024-02-16T08:09:50;15.00;99.90
26081;DHT22;13991;51.174;4.438;2024-02-16T08:12:16;15.10;99.90
26081;DHT22;13991;51.174;4.438;2024-02-16T08:14:42;15.10;99.90
26081;DHT22;13991;51.174;4.438;2024-02-16T08:17:09;15.10;99.90
26081;DHT22;13991;51.174;4.438;2024-02-16T08:19:36;15.10;99.90
26081;DHT22;13991;51.174;4.438;2024-02-16T08:22:04;15.20;99.90
26081;DHT22;13991;51.174;4.438;2024-02-16T08:24:37;15.20;99.90
26081;DHT22;13991;51.174;4.438;2024-02-16T08:27:03;15.20;99.90
26081;DHT22;13991;51.174;4.438;2024-02-16T08:29:30;15.20;99.90
26081;DHT22;13991;51.174;4.438;2024-02-16T08:31:56;15.30;99.90
26081;DHT22;13991;51.174;4.438;2024-02-16T08:34:21;15.20;99.90
26081;DHT22;13991;51.174;4.438;2024-02-16T08:36:48;15.30;99.90
26081;DHT22;13991;51.174;4.438;2024-02-16T08:39:15;15.30;99.90
26081;DHT22;13991;51.174;4.438;2024-02-16T08:41:41;15.40;99.90
26081;DHT22;13991;51.174;4.438;2024-02-16T08:44:07;15.40;99.90
26081;DHT22;13991;51.174;4.438;2024-02-16T08:46:36;15.40;99.90
26081;DHT22;13991;51.174;4.438;2024-02-16T08:49:02;15.50;99.90
26081;DHT22;13991;51.174;4.438;2024-02-16T08:51:28;15.60;99.90
26081;DHT22;13991;51.174;4.438;2024-02-16T08:53:55;15.50;99.90
26081;DHT22;13991;51.174;4.438;2024-02-16T08:56:21;15.50;99.90
26081;DHT22;13991;51.174;4.438;2024-02-16T08:58:46;15.60;99.90
26081;DHT22;13991;51.174;4.438;2024-02-16T09:01:12;15.60;99.90
26081;DHT22;13991;51.174;4.438;2024-02-16T09:03:38;15.60;99.90
26081;DHT22;13991;51.174;4.438;2024-02-16T09:06:05;15.70;99.90
26081;DHT22;13991;51.174;4.438;2024-02-16T09:08:32;15.70;99.90
26081;DHT22;13991;51.174;4.438;2024-02-16T09:11:03;15.70;99.90
26081;DHT22;13991;51.174;4.438;2024-02-16T09:13:34;15.70;99.90
26081;DHT22;13991;51.174;4.438;2024-02-16T09:16:02;15.70;99.90
26081;DHT22;13991;51.174;4.438;2024-02-16T09:18:29;15.70;99.90
26081;DHT22;13991;51.174;4.438;2024-02-16T09:20:55;15.80;99.90
26081;DHT22;13991;51.174;4.438;2024-02-16T09:23:21;15.80;99.90
26081;DHT22;13991;51.174;4.438;2024-02-16T09:25:46;15.80;99.90
26081;DHT22;13991;51.174;4.438;2024-02-16T09:28:12;15.90;99.90
26081;DHT22;13991;51.174;4.438;2024-02-16T09:30:38;15.90;99.90
26081;DHT22;13991;51.174;4.438;2024-02-16T09:33:04;15.90;99.90
26081;DHT22;13991;51.174;4.438;2024-02-16T09:35:30;15.90;99.90
26081;DHT22;13991;51.174;4.438;2024-02-16T09:37:56;15.80;99.90
26081;DHT22;13991;51.174;4.438;2024-02-16T09:40:22;15.90;99.90
26081;DHT22;13991;51.174;4.438;2024-02-16T09:42:48;16.00;99.90
26081;DHT22;13991;51.174;4.438;2024-02-16T09:45:17;15.90;99.90
26081;DHT22;13991;51.174;4.438;2024-02-16T09:47:45;16.00;99.90
26081;DHT22;13991;51.174;4.438;2024-02-16T09:50:12;15.90;99.90
26081;DHT22;13991;51.174;4.438;2024-02-16T09:52:40;15.80;99.90
26081;DHT22;13991;51.174;4.438;2024-02-16T09:55:10;15.80;99.90
26081;DHT22;13991;51.174;4.438;2024-02-16T09:57:37;15.90;99.90
26081;DHT22;13991;51.174;4.438;2024-02-16T10:00:03;15.90;99.90
26081;DHT22;13991;51.174;4.438;2024-02-16T10:02:45;15.90;99.90
26081;DHT22;13991;51.174;4.438;2024-02-16T10:05:15;15.80;99.90
26081;DHT22;13991;51.174;4.438;2024-02-16T10:07:42;15.80;99.90
26081;DHT22;13991;51.174;4.438;2024-02-16T10:10:38;15.80;99.90
26081;DHT22;13991;51.174;4.438;2024-02-16T10:13:05;15.80;99.90
26081;DHT22;13991;51.174;4.438;2024-02-16T10:15:34;15.70;99.90
26081;DHT22;13991;51.174;4.438;2024-02-16T10:18:07;15.70;99.90
26081;DHT22;13991;51.174;4.438;2024-02-16T10:20:34;15.70;99.90
26081;DHT22;13991;51.174;4.438;2024-02-16T10:23:11;15.80;99.90
26081;DHT22;13991;51.174;4.438;2024-02-16T10:25:38;15.80;99.90
26081;DHT22;13991;51.174;4.438;2024-02-16T10:28:08;15.80;99.90
26081;DHT22;13991;51.174;4.438;2024-02-16T10:30:38;15.70;99.90
26081;DHT22;13991;51.174;4.438;2024-02-16T10:33:07;15.70;99.90
26081;DHT22;13991;51.174;4.438;2024-02-16T10:35:37;15.60;99.90
26081;DHT22;13991;51.174;4.438;2024-02-16T10:38:05;15.70;99.90
26081;DHT22;13991;51.174;4.438;2024-02-16T10:40:39;15.60;99.90
26081;DHT22;13991;51.174;4.438;2024-02-16T10:43:05;15.60;99.90
26081;DHT22;13991;51.174;4.438;2024-02-16T10:45:37;15.60;99.90
26081;DHT22;13991;51.174;4.438;2024-02-16T10:48:04;15.60;99.90
26081;DHT22;13991;51.174;4.438;2024-02-16T10:50:32;15.60;99.90
26081;DHT22;13991;51.174;4.438;2024-02-16T10:53:03;15.60;99.90
26081;DHT22;13991;51.174;4.438;2024-02-16T10:55:30;15.60;99.90
26081;DHT22;13991;51.174;4.438;2024-02-16T10:57:56;15.50;99.90
26081;DHT22;13991;51.174;4.438;2024-02-16T11:00:24;15.40;99.90
26081;DHT22;13991;51.174;4.438;2024-02-16T11:02:54;15.40;99.90
26081;DHT22;13991;51.174;4.438;2024-02-16T11:05:41;15.40;99.90
26081;DHT22;13991;51.174;4.438;2024-02-16T11:08:17;15.30;99.90
26081;DHT22;13991;51.174;4.438;2024-02-16T11:11:00;15.30;99.90
26081;DHT22;13991;51.174;4.438;2024-02-16T11:13:27;15.30;99.90
26081;DHT22;13991;51.174;4.438;2024-02-16T11:16:12;15.30;99.90
26081;DHT22;13991;51.174;4.438;2024-02-16T11:18:42;15.20;99.90
26081;DHT22;13991;51.174;4.438;2024-02-16T11:21:15;15.10;99.90
26081;DHT22;13991;51.174;4.438;2024-02-16T11:23:44;15.00;99.90
26081;DHT22;13991;51.174;4.438;2024-02-16T11:26:12;15.00;99.90
26081;DHT22;13991;51.174;4.438;2024-02-16T11:28:41;14.90;99.90
26081;DHT22;13991;51.174;4.438;2024-02-16T11:31:09;14.90;99.90
26081;DHT22;13991;51.174;4.438;2024-02-16T11:33:35;14.80;99.90
26081;DHT22;13991;51.174;4.438;2024-02-16T11:36:04;14.80;99.90
26081;DHT22;13991;51.174;4.438;2024-02-16T11:41:20;14.80;99.90
26081;DHT22;13991;51.174;4.438;2024-02-16T11:43:48;14.80;99.90
26081;DHT22;13991;51.174;4.438;2024-02-16T11:46:18;14.90;99.90
26081;DHT22;13991;51.174;4.438;2024-02-16T11:51:29;14.90;99.90
26081;DHT22;13991;51.174;4.438;2024-02-16T11:53:56;14.80;99.90
26081;DHT22;13991;51.174;4.438;2024-02-16T11:56:23;14.70;99.90
26081;DHT22;13991;51.174;4.438;2024-02-16T11:58:53;14.70;99.90
26081;DHT22;13991;51.174;4.438;2024-02-16T12:01:20;14.70;99.90
26081;DHT22;13991;51.174;4.438;2024-02-16T12:03:47;14.70;99.90
26081;DHT22;13991;51.174;4.438;2024-02-16T12:06:22;14.60;99.90
26081;DHT22;13991;51.174;4.438;2024-02-16T12:08:50;14.70;99.90
26081;DHT22;13991;51.174;4.438;2024-02-16T12:11:16;14.70;99.90
26081;DHT22;13991;51.174;4.438;2024-02-16T12:13:46;14.70;99.90
26081;DHT22;13991;51.174;4.438;2024-02-16T12:16:14;14.70;99.90
26081;DHT22;13991;51.174;4.438;2024-02-16T12:18:39;14.60;99.90
26081;DHT22;13991;51.174;4.438;2024-02-16T12:21:06;14.60;99.90
26081;DHT22;13991;51.174;4.438;2024-02-16T12:23:32;14.60;99.90
26081;DHT22;13991;51.174;4.438;2024-02-16T12:26:00;14.50;99.90
26081;DHT22;13991;51.174;4.438;2024-02-16T12:28:27;14.40;99.90
26081;DHT22;13991;51.174;4.438;2024-02-16T12:30:55;14.30;99.90
26081;DHT22;13991;51.174;4.438;2024-02-16T12:33:24;14.20;99.90
26081;DHT22;13991;51.174;4.438;2024-02-16T12:35:50;14.00;99.90
26081;DHT22;13991;51.174;4.438;2024-02-16T12:38:16;13.80;99.90
26081;DHT22;13991;51.174;4.438;2024-02-16T12:40:49;13.80;99.90
26081;DHT22;13991;51.174;4.438;2024-02-16T12:43:25;13.90;99.90
26081;DHT22;13991;51.174;4.438;2024-02-16T12:46:04;13.90;99.90
26081;DHT22;13991;51.174;4.438;2024-02-16T12:51:19;14.20;99.90
26081;DHT22;13991;51.174;4.438;2024-02-16T12:53:45;14.30;99.90
26081;DHT22;13991;51.174;4.438;2024-02-16T12:56:13;14.50;99.90
26081;DHT22;13991;51.174;4.438;2024-02-16T12:59:00;14.70;99.90
26081;DHT22;13991;51.174;4.438;2024-02-16T13:01:29;14.70;99.90
26081;DHT22;13991;51.174;4.438;2024-02-16T13:04:01;14.70;99.90
26081;DHT22;13991;51.174;4.438;2024-02-16T13:06:30;14.60;99.90
26081;DHT22;13991;51.174;4.438;2024-02-16T13:09:02;14.60;99.90
26081;DHT22;13991;51.174;4.438;2024-02-16T13:11:31;14.60;99.90
26081;DHT22;13991;51.174;4.438;2024-02-16T13:14:11;14.60;99.90
26081;DHT22;13991;51.174;4.438;2024-02-16T13:17:03;14.90;99.90
26081;DHT22;13991;51.174;4.438;2024-02-16T13:19:39;14.90;99.90
26081;DHT22;13991;51.174;4.438;2024-02-16T13:22:05;14.90;99.90
26081;DHT22;13991;51.174;4.438;2024-02-16T13:24:43;15.00;99.90
26081;DHT22;13991;51.174;4.438;2024-02-16T13:27:09;15.00;99.90
26081;DHT22;13991;51.174;4.438;2024-02-16T13:29:35;15.00;99.90
26081;DHT22;13991;51.174;4.438;2024-02-16T13:32:01;15.00;99.90
26081;DHT22;13991;51.174;4.438;2024-02-16T13:34:32;14.90;99.90
26081;DHT22;13991;51.174;4.438;2024-02-16T13:37:01;15.00;99.90
26081;DHT22;13991;51.174;4.438;2024-02-16T13:39:30;14.90;99.90
26081;DHT22;13991;51.174;4.438;2024-02-16T13:41:56;15.00;99.90
26081;DHT22;13991;51.174;4.438;2024-02-16T13:44:23;14.90;99.90
26081;DHT22;13991;51.174;4.438;2024-02-16T13:46:50;14.80;99.90
26081;DHT22;13991;51.174;4.438;2024-02-16T13:49:16;14.80;99.90
26081;DHT22;13991;51.174;4.438;2024-02-16T13:51:42;14.80;99.90
26081;DHT22;13991;51.174;4.438;2024-02-16T13:54:08;14.80;99.90
26081;DHT22;13991;51.174;4.438;2024-02-16T13:56:34;14.80;99.90
26081;DHT22;13991;51.174;4.438;2024-02-16T13:59:02;14.90;99.90
26081;DHT22;13991;51.174;4.438;2024-02-16T14:01:28;15.00;99.90
26081;DHT22;13991;51.174;4.438;2024-02-16T14:03:55;15.00;99.90
26081;DHT22;13991;51.174;4.438;2024-02-16T14:06:21;14.90;99.90
26081;DHT22;13991;51.174;4.438;2024-02-16T14:08:46;14.90;99.90
26081;DHT22;13991;51.174;4.438;2024-02-16T14:11:14;14.90;99.90
26081;DHT22;13991;51.174;4.438;2024-02-16T14:13:40;14.90;99.90
26081;DHT22;13991;51.174;4.438;2024-02-16T14:16:06;15.00;99.90
26081;DHT22;13991;51.174;4.438;2024-02-16T14:18:33;15.10;99.90
26081;DHT22;13991;51.174;4.438;2024-02-16T14:20:58;15.10;99.90
26081;DHT22;13991;51.174;4.438;2024-02-16T14:23:24;15.10;99.90
26081;DHT22;13991;51.174;4.438;2024-02-16T14:25:50;15.20;99.90
26081;DHT22;13991;51.174;4.438;2024-02-16T14:28:16;15.30;99.90
26081;DHT22;13991;51.174;4.438;2024-02-16T14:30:41;15.30;99.90
26081;DHT22;13991;51.174;4.438;2024-02-16T14:33:07;15.30;99.90
26081;DHT22;13991;51.174;4.438;2024-02-16T14:35:33;15.30;99.90
26081;DHT22;13991;51.174;4.438;2024-02-16T14:38:02;15.30;99.90
26081;DHT22;13991;51.174;4.438;2024-02-16T14:40:28;15.20;99.90
26081;DHT22;13991;51.174;4.438;2024-02-16T14:42:53;15.10;99.90
26081;DHT22;13991;51.174;4.438;2024-02-16T14:45:19;15.10;99.90
26081;DHT22;13991;51.174;4.438;2024-02-16T14:47:46;15.20;99.90
26081;DHT22;13991;51.174;4.438;2024-02-16T14:50:12;15.10;99.90
26081;DHT22;13991;51.174;4.438;2024-02-16T14:52:39;15.10;99.90
26081;DHT22;13991;51.174;4.438;2024-02-16T14:55:05;15.00;99.90
26081;DHT22;13991;51.174;4.438;2024-02-16T14:57:41;14.90;99.90
26081;DHT22;13991;51.174;4.438;2024-02-16T15:00:08;14.90;99.90
26081;DHT22;13991;51.174;4.438;2024-02-16T15:02:35;15.00;99.90
26081;DHT22;13991;51.174;4.438;2024-02-16T15:05:05;15.00;99.90
26081;DHT22;13991;51.174;4.438;2024-02-16T15:07:31;15.00;99.90
26081;DHT22;13991;51.174;4.438;2024-02-16T15:09:57;15.00;99.90
26081;DHT22;13991;51.174;4.438;2024-02-16T15:12:23;15.00;99.90
26081;DHT22;13991;51.174;4.438;2024-02-16T15:14:49;15.00;99.90
26081;DHT22;13991;51.174;4.438;2024-02-16T15:17:16;15.00;99.90
26081;DHT22;13991;51.174;4.438;2024-02-16T15:19:42;15.00;99.90
26081;DHT22;13991;51.174;4.438;2024-02-16T15:22:08;14.90;99.90
26081;DHT22;13991;51.174;4.438;2024-02-16T15:24:34;14.90;99.90
26081;DHT22;13991;51.174;4.438;2024-02-16T15:27:00;14.90;99.90
26081;DHT22;13991;51.174;4.438;2024-02-16T15:29:29;14.90;99.90
26081;DHT22;13991;51.174;4.438;2024-02-16T15:31:56;15.00;99.90
26081;DHT22;13991;51.174;4.438;2024-02-16T15:34:23;15.00;99.90
26081;DHT22;13991;51.174;4.438;2024-02-16T15:36:49;15.10;99.90
26081;DHT22;13991;51.174;4.438;2024-02-16T15:39:15;15.20;99.90